Terminal Aerodrome Forecast
Issued by NWS Burlington, VT

Home | Current Version | Previous Version | Text Only | Print | Product List | Glossary On
Versions: 1 2 3 4 5 6 7 8 9 10 11 12 13 14 15 16 17 18 19
000
FTUS41 KBTV 220529
TAFBTV
TAF
KBTV 220529Z 2206/2306 19012G20KT P6SM BKN150
     FM221000 19007KT P6SM VCSH OVC080
     FM221200 20006KT 4SM -SHRA BR OVC060
     FM221700 33007KT P6SM VCSH BKN020
     FM222000 33009KT P6SM BKN045
     FM230200 33008KT P6SM SCT060=

USA.gov is the U.S. government's official web portal to all federal, state and local government web resources and services.